MUC | München Airways

 METAR UND TAF INFORMATION

METAR FOR EGPF
ADDS - METARS form results

(1531 UTC 19 May 2019)
Data provider http://aviationweather.gov/metar/data/
 
METAR text: EGPF 191520Z AUTO VRB03KT 9999 BKN029 BKN034 OVC046 13/09 Q1010
Conditions at: EGPF (GLASGOW AIRPORT , GB) observed 1520 UTC 19 May 2019
Temperature: 13.0°C (55°F)
Dewpoint: 9.0°C (48°F) [RH = 77%]
Pressure (altimeter): 29.82 inches Hg (1010.0 mb)
Winds: variable direction winds at 3 MPH (3 knots; 1.5 m/s)
Visibility: 6 or more miles (10+ km)
Ceiling: 2900 feet AGL
Clouds: broken clouds at 2900 feet AGL
broken clouds at 3400 feet AGL
overcast cloud deck at 4600 feet AGL
Weather: no significant weather observed at this time

METAR text: EGPF 191450Z VRB03KT 9999 SCT030 BKN036 OVC047 13/09 Q1010
Conditions at: EGPF (GLASGOW AIRPORT , GB) observed 1450 UTC 19 May 2019
Temperature: 13.0°C (55°F)
Dewpoint: 9.0°C (48°F) [RH = 77%]
Pressure (altimeter): 29.82 inches Hg (1010.0 mb)
Winds: variable direction winds at 3 MPH (3 knots; 1.5 m/s)
Visibility: 6 or more miles (10+ km)
Ceiling: 3600 feet AGL
Clouds: scattered clouds at 3000 feet AGL
broken clouds at 3600 feet AGL
overcast cloud deck at 4700 feet AGL
Weather: no significant weather observed at this time

Forecast for: EGPF (GLASGOW AIRPORT , GB)
Text: TAF EGPF 191057Z 1912/2012 23006KT 9999 SCT025
Forecast period: 1200 UTC 19 May 2019 to 1200 UTC 20 May 2019
Forecast type: FROM: standard forecast or significant change
Winds: from the SW (230 degrees) at 7 MPH (6 knots; 3.1 m/s)
Visibility: 6 or more miles 10+ km)
Ceiling: at least 12,000 feet AGL
Clouds: scattered clouds at 2500 feet AGL
Weather: no significant weather forecast for this period
Text: PROB40
Forecast period: 1800 UTC 19 May 2019 to 0900 UTC 20 May 2019
Forecast type: TEMPORARY: The following changes expected for less than half the time period
Visibility: missing
Ceiling: 800 feet AGL
Clouds: broken clouds at 800 feet AGL
Weather: no significant weather forecast for this period

 FLUGHAFENKARTE

 RUNWAY INFORMATION
Runway 05 Runway length 8720 ft Runway width 151 ft
Runway elevation 26 ft Runway displaced threshold 0 ft Runway heading 46
Runway 23 Runway length 8720 ft Runway width 151 ft
Runway elevation 21 ft Runway displaced threshold 980 ft Runway heading 226
Runway 09 Runway length 3622 ft Runway width 151 ft
Runway elevation 17 ft Runway displaced threshold 203 ft Runway heading 91
Runway 27 Runway length 3622 ft Runway width 151 ft
Runway elevation 23 ft Runway displaced threshold 0 ft Runway heading 271

 AIRPORT FREQUENCIES
Type ACC Name SHANWICK O Frequency 120.35 MHZ
Type APP Name APP Frequency 119.1 MHZ
Type ATIS Name ATIS Frequency 129.575 MHZ
Type GND Name GND Frequency 121.7 MHZ
Type TWR Name TWR Frequency 118.8 MHZ

 AIRPORT NEAR NAVIGATION AIDS
Type NDB Name Glasgow Frequency 331 KHZ
Type VOR-DME Name Glasgow Frequency 115400 KHZ